Time;durP1;ratioP1;P1;durP2;ratioP2;P2;SDS_P1;SDS_P2;PMS_P1;PMS_P2;Temp;Humidity;BMP_temperature;BMP_pressure;BME280_temperature;BME280_humidity;BME280_pressure;Samples;Min_cycle;Max_cycle;Signal;HPM_P1;HPM_P2
2021/09/04 00:00:30;;;;;;;;;;;;;;;;;;2090110;28;20348;-60
2021/09/04 00:01:31;;;;;;;;;;;;;;;;;;2089430;28;19928;-60
2021/09/04 00:02:32;;;;;;;;;;;;;;;;;;2088120;28;20372;-60
2021/09/04 00:03:33;;;;;;;;;;;;;;;;;;2090063;28;19920;-59
2021/09/04 00:04:34;;;;;;;;;;;;;;;;;;2089341;28;20344;-59
2021/09/04 00:05:35;;;;;;;;;;;;;;;;;;2088153;28;19924;-60
2021/09/04 00:06:36;;;;;;;;;;;;;;;;;;2090033;28;20013;-59
2021/09/04 00:07:37;;;;;;;;;;;;;;;;;;2089055;28;19974;-60
2021/09/04 00:08:38;;;;;;;;;;;;;;;;;;2085081;28;19921;-59
2021/09/04 00:09:39;;;;;;;;;;;;;;;;;;2081629;28;20387;-60
2021/09/04 00:10:39;;;;;;;;;;;;;;;;;;2084238;28;19920;-59
2021/09/04 00:11:40;;;;;;;;;;;;;;;;;;2089586;28;19921;-64
2021/09/04 00:12:41;;;;;;;;;;;;;;;;;;2089936;28;20290;-60
2021/09/04 00:13:42;;;;;;;;;;;;;;;;;;2089136;28;20310;-59
2021/09/04 00:14:42;;;;;;;;;;;;;;;;;;2088543;28;19921;-59
2021/09/04 00:15:43;;;;;;;;;;;;;;;;;;2089868;28;19924;-59
2021/09/04 00:16:44;;;;;;;;;;;;;;;;;;2088778;28;20428;-59
2021/09/04 00:17:45;;;;;;;;;;;;;;;;;;2088789;28;19975;-59
2021/09/04 00:18:46;;;;;;;;;;;;;;;;;;2090019;28;19927;-59
2021/09/04 00:19:47;;;;;;;;;;;;;;;;;;2079370;28;19983;-59
2021/09/04 00:20:47;;;;;;;;;;;;;;;;;;2080656;28;19925;-59
2021/09/04 00:21:48;;;;;;;;;;;;;;;;;;2089819;28;19920;-60
2021/09/04 00:22:49;;;;;;;;;;;;;;;;;;2087509;28;19924;-60
2021/09/04 00:23:50;;;;;;;;;;;;;;;;;;2089742;28;19921;-59
2021/09/04 00:24:51;;;;;;;;;;;;;;;;;;2089921;28;20336;-59
2021/09/04 00:25:52;;;;;;;;;;;;;;;;;;2087668;28;20320;-58
2021/09/04 00:26:52;;;;;;;;;;;;;;;;;;2089635;28;19925;-59
2021/09/04 00:27:53;;;;;;;;;;;;;;;;;;2089888;28;19924;-59
2021/09/04 00:28:54;;;;;;;;;;;;;;;;;;2088196;28;20388;-59
2021/09/04 00:29:55;;;;;;;;;;;;;;;;;;2081800;28;19913;-45
2021/09/04 00:30:55;;;;;;;;;;;;;;;;;;2081255;28;19921;-46
2021/09/04 00:31:56;;;;;;;;;;;;;;;;;;2087273;28;19928;-46
2021/09/04 00:32:57;;;;;;;;;;;;;;;;;;2081583;28;19928;-45
2021/09/04 00:33:58;;;;;;;;;;;;;;;;;;2081568;28;19921;-46
2021/09/04 00:34:59;;;;;;;;;;;;;;;;;;2086502;28;19921;-45
2021/09/04 00:36:00;;;;;;;;;;;;;;;;;;2089847;28;19933;-45
2021/09/04 00:37:00;;;;;;;;;;;;;;;;;;2089073;28;19920;-46
2021/09/04 00:38:01;;;;;;;;;;;;;;;;;;2087774;28;19921;-46
2021/09/04 00:39:02;;;;;;;;;;;;;;;;;;2089769;28;19921;-46
2021/09/04 00:40:03;;;;;;;;;;;;;;;;;;2089253;28;20395;-46
2021/09/04 00:41:04;;;;;;;;;;;;;;;;;;2086351;28;19921;-45
2021/09/04 00:42:04;;;;;;;;;;;;;;;;;;2081433;28;19971;-46
2021/09/04 00:43:05;;;;;;;;;;;;;;;;;;2082737;28;19921;-45
2021/09/04 00:44:06;;;;;;;;;;;;;;;;;;2088002;28;19975;-45
2021/09/04 00:45:07;;;;;;;;;;;;;;;;;;2089872;28;19921;-46
2021/09/04 00:46:09;;;;;;;;;;;;;;;;;;2088772;28;19928;-45
2021/09/04 00:47:10;;;;;;;;;;;;;;;;;;2088219;28;19946;-44
2021/09/04 00:48:11;;;;;;;;;;;;;;;;;;2089710;28;20444;-44
2021/09/04 00:49:12;;;;;;;;;;;;;;;;;;2088845;28;19927;-44
2021/09/04 00:50:13;;;;;;;;;;;;;;;;;;2088017;28;19928;-44
2021/09/04 00:51:14;;;;;;;;;;;;;;;;;;2081250;28;19932;-44
2021/09/04 00:52:16;;;;;;;;;;;;;;;;;;2084509;28;19928;-44
2021/09/04 00:53:16;;;;;;;;;;;;;;;;;;2083853;28;20016;-44
2021/09/04 00:54:17;;;;;;;;;;;;;;;;;;2081585;28;19928;-45
2021/09/04 00:55:18;;;;;;;;;;;;;;;;;;2085088;28;20269;-45
2021/09/04 00:56:19;;;;;;;;;;;;;;;;;;2082540;28;20306;-45
2021/09/04 00:57:20;;;;;;;;;;;;;;;;;;2081474;28;20323;-46
2021/09/04 00:58:21;;;;;;;;;;;;;;;;;;2085625;28;20029;-45
2021/09/04 00:59:21;;;;;;;;;;;;;;;;;;2083091;28;19962;-45
2021/09/04 01:00:22;;;;;;;;;;;;;;;;;;2081306;28;19921;-45
2021/09/04 01:01:23;;;;;;;;;;;;;;;;;;2084723;28;20065;-46
2021/09/04 01:02:24;;;;;;;;;;;;;;;;;;2089439;28;19921;-46
2021/09/04 01:03:25;;;;;;;;;;;;;;;;;;2089833;28;19924;-45
2021/09/04 01:04:26;;;;;;;;;;;;;;;;;;2087450;28;19920;-46
2021/09/04 01:05:27;;;;;;;;;;;;;;;;;;2089619;28;19920;-45
2021/09/04 01:06:28;;;;;;;;;;;;;;;;;;2089780;28;19952;-46
2021/09/04 01:07:28;;;;;;;;;;;;;;;;;;2087384;28;20293;-45
2021/09/04 01:08:29;;;;;;;;;;;;;;;;;;2089621;28;19933;-45
2021/09/04 01:09:30;;;;;;;;;;;;;;;;;;2089565;28;19920;-46
2021/09/04 01:10:31;;;;;;;;;;;;;;;;;;2087450;28;19925;-46
2021/09/04 01:11:32;;;;;;;;;;;;;;;;;;2081451;28;19928;-46
2021/09/04 01:12:33;;;;;;;;;;;;;;;;;;2080978;28;19925;-45
2021/09/04 01:13:33;;;;;;;;;;;;;;;;;;2087620;28;19928;-45
2021/09/04 01:14:34;;;;;;;;;;;;;;;;;;2089835;28;19920;-46
2021/09/04 01:15:36;;;;;;;;;;;;;;;;;;2089114;28;20285;-45
2021/09/04 01:16:37;;;;;;;;;;;;;;;;;;2087719;28;19971;-45
2021/09/04 01:17:37;;;;;;;;;;;;;;;;;;2089668;28;19921;-46
2021/09/04 01:18:38;;;;;;;;;;;;;;;;;;2089164;28;19958;-45
2021/09/04 01:19:39;;;;;;;;;;;;;;;;;;2084947;28;19933;-45
2021/09/04 01:20:40;;;;;;;;;;;;;;;;;;2081217;28;19921;-46
2021/09/04 01:21:40;;;;;;;;;;;;;;;;;;2082729;28;20289;-45
2021/09/04 01:22:41;;;;;;;;;;;;;;;;;;2087614;28;20412;-46
2021/09/04 01:23:42;;;;;;;;;;;;;;;;;;2089659;28;19921;-45
2021/09/04 01:24:43;;;;;;;;;;;;;;;;;;2088701;28;19963;-45
2021/09/04 01:25:44;;;;;;;;;;;;;;;;;;2088027;28;19990;-46
2021/09/04 01:26:45;;;;;;;;;;;;;;;;;;2089737;28;20317;-59
2021/09/04 01:27:45;;;;;;;;;;;;;;;;;;2088517;28;19951;-59
2021/09/04 01:28:46;;;;;;;;;;;;;;;;;;2088009;28;19921;-59
2021/09/04 01:29:47;;;;;;;;;;;;;;;;;;2089641;28;19921;-62
2021/09/04 01:30:48;;;;;;;;;;;;;;;;;;2088551;28;20023;-59
2021/09/04 01:31:49;;;;;;;;;;;;;;;;;;2088047;28;19921;-59
2021/09/04 01:32:50;;;;;;;;;;;;;;;;;;2089496;28;19931;-60
2021/09/04 01:33:50;;;;;;;;;;;;;;;;;;2088238;28;19920;-59
2021/09/04 01:34:51;;;;;;;;;;;;;;;;;;2088155;28;19928;-59
2021/09/04 01:35:52;;;;;;;;;;;;;;;;;;2089516;28;19924;-60
2021/09/04 01:36:53;;;;;;;;;;;;;;;;;;2087916;28;20311;-59
2021/09/04 01:37:54;;;;;;;;;;;;;;;;;;2082677;28;19921;-59
2021/09/04 01:38:55;;;;;;;;;;;;;;;;;;2081375;28;19932;-59
2021/09/04 01:39:55;;;;;;;;;;;;;;;;;;2084858;28;20378;-60
2021/09/04 01:40:56;;;;;;;;;;;;;;;;;;2088981;28;19928;-59
2021/09/04 01:41:57;;;;;;;;;;;;;;;;;;2089426;28;20050;-59
2021/09/04 01:42:58;;;;;;;;;;;;;;;;;;2088202;28;19924;-59
2021/09/04 01:43:58;;;;;;;;;;;;;;;;;;2081783;28;19928;-59
2021/09/04 01:44:59;;;;;;;;;;;;;;;;;;2081255;28;19920;-60
2021/09/04 01:46:00;;;;;;;;;;;;;;;;;;2085836;28;19921;-60
2021/09/04 01:47:05;;;;;;;;;;;;;;;;;;2089330;28;20377;-60
2021/09/04 01:48:06;;;;;;;;;;;;;;;;;;2089428;28;19930;-60
2021/09/04 01:49:07;;;;;;;;;;;;;;;;;;2087002;28;20432;-60
2021/09/04 01:50:09;;;;;;;;;;;;;;;;;;2081276;28;19924;-60
2021/09/04 01:51:10;;;;;;;;;;;;;;;;;;2079733;28;20027;-60
2021/09/04 01:52:11;;;;;;;;;;;;;;;;;;2086500;28;19925;-59
2021/09/04 01:53:12;;;;;;;;;;;;;;;;;;2081211;28;19921;-59
2021/09/04 01:54:12;;;;;;;;;;;;;;;;;;2081871;28;20102;-60
2021/09/04 01:55:13;;;;;;;;;;;;;;;;;;2087258;28;19928;-59
2021/09/04 01:56:14;;;;;;;;;;;;;;;;;;2089397;28;19920;-59
2021/09/04 01:57:15;;;;;;;;;;;;;;;;;;2088708;28;20390;-60
2021/09/04 01:58:16;;;;;;;;;;;;;;;;;;2087533;28;20369;-60
2021/09/04 01:59:17;;;;;;;;;;;;;;;;;;2089358;28;20362;-59
2021/09/04 02:00:18;;;;;;;;;;;;;;;;;;2088802;28;19920;-60
2021/09/04 02:01:18;;;;;;;;;;;;;;;;;;2085032;28;20329;-60
2021/09/04 02:02:19;;;;;;;;;;;;;;;;;;2081020;28;20290;-60
2021/09/04 02:03:20;;;;;;;;;;;;;;;;;;2083220;28;19920;-61
2021/09/04 02:04:21;;;;;;;;;;;;;;;;;;2087939;28;19927;-59
2021/09/04 02:05:22;;;;;;;;;;;;;;;;;;2089432;28;19921;-46
2021/09/04 02:06:23;;;;;;;;;;;;;;;;;;2088329;28;19974;-45
2021/09/04 02:07:24;;;;;;;;;;;;;;;;;;2083845;28;19921;-45
2021/09/04 02:08:24;;;;;;;;;;;;;;;;;;2081093;28;19987;-45
2021/09/04 02:09:25;;;;;;;;;;;;;;;;;;2084551;28;19928;-45
2021/09/04 02:10:26;;;;;;;;;;;;;;;;;;2087826;28;19920;-45
2021/09/04 02:11:27;;;;;;;;;;;;;;;;;;2089077;28;19925;-45
2021/09/04 02:12:28;;;;;;;;;;;;;;;;;;2088183;28;19956;-45
2021/09/04 02:13:28;;;;;;;;;;;;;;;;;;2087768;28;19921;-45
2021/09/04 02:14:29;;;;;;;;;;;;;;;;;;2090631;28;19928;-45
2021/09/04 02:15:30;;;;;;;;;;;;;;;;;;2088796;28;19924;-45
2021/09/04 02:16:31;;;;;;;;;;;;;;;;;;2090126;28;20165;-45
2021/09/04 02:17:32;;;;;;;;;;;;;;;;;;2090622;28;19920;-45
2021/09/04 02:18:33;;;;;;;;;;;;;;;;;;2088474;28;19932;-45
2021/09/04 02:19:34;;;;;;;;;;;;;;;;;;2090627;28;19956;-45
2021/09/04 02:20:35;;;;;;;;;;;;;;;;;;2090636;28;20332;-45
2021/09/04 02:21:36;;;;;;;;;;;;;;;;;;2088464;28;19951;-45
2021/09/04 02:22:36;;;;;;;;;;;;;;;;;;2090564;28;19927;-45
2021/09/04 02:23:37;;;;;;;;;;;;;;;;;;2090593;28;19921;-45
2021/09/04 02:24:38;;;;;;;;;;;;;;;;;;2088998;28;19974;-45
2021/09/04 02:25:39;;;;;;;;;;;;;;;;;;2082284;28;19921;-45
2021/09/04 02:26:40;;;;;;;;;;;;;;;;;;2082507;28;19929;-45
2021/09/04 02:27:41;;;;;;;;;;;;;;;;;;2088010;28;20369;-45
2021/09/04 02:28:42;;;;;;;;;;;;;;;;;;2082380;28;19921;-45
2021/09/04 02:29:43;;;;;;;;;;;;;;;;;;2086715;28;19921;-45
2021/09/04 02:30:44;;;;;;;;;;;;;;;;;;2088669;28;19920;-45
2021/09/04 02:31:44;;;;;;;;;;;;;;;;;;2090571;28;19920;-45
2021/09/04 02:32:45;;;;;;;;;;;;;;;;;;2090064;28;19920;-45
2021/09/04 02:33:46;;;;;;;;;;;;;;;;;;2087379;28;20055;-45
2021/09/04 02:34:47;;;;;;;;;;;;;;;;;;2082268;28;19928;-45
2021/09/04 02:35:47;;;;;;;;;;;;;;;;;;2083230;28;19970;-45
2021/09/04 02:36:48;;;;;;;;;;;;;;;;;;2088741;28;19951;-45
2021/09/04 02:37:49;;;;;;;;;;;;;;;;;;2090537;28;19920;-45
2021/09/04 02:38:50;;;;;;;;;;;;;;;;;;2090092;28;19925;-45
2021/09/04 02:39:51;;;;;;;;;;;;;;;;;;2088687;28;19927;-45
2021/09/04 02:40:52;;;;;;;;;;;;;;;;;;2090493;28;20392;-46
2021/09/04 02:41:52;;;;;;;;;;;;;;;;;;2089737;28;20540;-45
2021/09/04 02:42:53;;;;;;;;;;;;;;;;;;2088925;28;19983;-45
2021/09/04 02:43:54;;;;;;;;;;;;;;;;;;2090399;28;19928;-45
2021/09/04 02:44:55;;;;;;;;;;;;;;;;;;2089824;28;19954;-45
2021/09/04 02:45:56;;;;;;;;;;;;;;;;;;2088898;28;20378;-45
2021/09/04 02:46:57;;;;;;;;;;;;;;;;;;2090515;28;19932;-44
2021/09/04 02:47:57;;;;;;;;;;;;;;;;;;2089476;28;19925;-45
2021/09/04 02:48:58;;;;;;;;;;;;;;;;;;2082839;28;19967;-45
2021/09/04 02:49:59;;;;;;;;;;;;;;;;;;2082246;28;19921;-45
2021/09/04 02:51:00;;;;;;;;;;;;;;;;;;2084437;28;19928;-45
2021/09/04 02:52:00;;;;;;;;;;;;;;;;;;2090293;28;20317;-45
2021/09/04 02:53:03;;;;;;;;;;;;;;;;;;2090338;28;20421;-45
2021/09/04 02:54:04;;;;;;;;;;;;;;;;;;2088198;28;20011;-45
2021/09/04 02:55:08;;;;;;;;;;;;;;;;;;2090395;28;20337;-45
2021/09/04 02:56:09;;;;;;;;;;;;;;;;;;2089876;28;19932;-44
2021/09/04 02:57:10;;;;;;;;;;;;;;;;;;2088420;28;19924;-45
2021/09/04 02:58:11;;;;;;;;;;;;;;;;;;2090580;28;19921;-45
2021/09/04 02:59:12;;;;;;;;;;;;;;;;;;2089969;28;19971;-45
2021/09/04 03:00:12;;;;;;;;;;;;;;;;;;2087034;28;20378;-44
2021/09/04 03:01:13;;;;;;;;;;;;;;;;;;2082202;28;20370;-45
2021/09/04 03:02:14;;;;;;;;;;;;;;;;;;2083102;28;19921;-44
2021/09/04 03:03:15;;;;;;;;;;;;;;;;;;2088765;28;19921;-45
2021/09/04 03:04:16;;;;;;;;;;;;;;;;;;2090325;28;19920;-45
2021/09/04 03:05:18;;;;;;;;;;;;;;;;;;2089727;28;19920;-45
2021/09/04 03:06:18;;;;;;;;;;;;;;;;;;2085940;28;19963;-44
2021/09/04 03:07:19;;;;;;;;;;;;;;;;;;2082151;28;19932;-45
2021/09/04 03:08:20;;;;;;;;;;;;;;;;;;2084108;28;19928;-45
2021/09/04 03:09:21;;;;;;;;;;;;;;;;;;2085566;28;20297;-44
2021/09/04 03:10:22;;;;;;;;;;;;;;;;;;2082048;28;20728;-45
2021/09/04 03:11:23;;;;;;;;;;;;;;;;;;2084876;28;19967;-45
2021/09/04 03:12:23;;;;;;;;;;;;;;;;;;2087948;28;19920;-45
2021/09/04 03:13:24;;;;;;;;;;;;;;;;;;2090215;28;19920;-45
2021/09/04 03:14:25;;;;;;;;;;;;;;;;;;2089690;28;19933;-45
2021/09/04 03:15:26;;;;;;;;;;;;;;;;;;2084253;28;20405;-45
2021/09/04 03:16:27;;;;;;;;;;;;;;;;;;2082049;28;19991;-44
2021/09/04 03:17:28;;;;;;;;;;;;;;;;;;2085703;28;20374;-45
2021/09/04 03:18:28;;;;;;;;;;;;;;;;;;2083922;28;19928;-45
2021/09/04 03:19:29;;;;;;;;;;;;;;;;;;2081962;28;19925;-45
2021/09/04 03:20:30;;;;;;;;;;;;;;;;;;2085632;28;19959;-44
2021/09/04 03:21:31;;;;;;;;;;;;;;;;;;2089678;28;19920;-45
2021/09/04 03:22:32;;;;;;;;;;;;;;;;;;2090079;28;19920;-45
2021/09/04 03:23:32;;;;;;;;;;;;;;;;;;2089164;28;19925;-45
2021/09/04 03:24:35;;;;;;;;;;;;;;;;;;2082442;28;19966;-45
2021/09/04 03:25:36;;;;;;;;;;;;;;;;;;2083723;28;20007;-45
2021/09/04 03:26:37;;;;;;;;;;;;;;;;;;2088976;28;19921;-44
2021/09/04 03:27:38;;;;;;;;;;;;;;;;;;2081999;28;19984;-45
2021/09/04 03:28:38;;;;;;;;;;;;;;;;;;2081984;28;19971;-45
2021/09/04 03:29:39;;;;;;;;;;;;;;;;;;2087136;28;20362;-45
2021/09/04 03:30:40;;;;;;;;;;;;;;;;;;2090063;28;19999;-45
2021/09/04 03:31:41;;;;;;;;;;;;;;;;;;2090598;28;19921;-45
2021/09/04 03:32:42;;;;;;;;;;;;;;;;;;2087847;28;19921;-44
2021/09/04 03:33:43;;;;;;;;;;;;;;;;;;2090352;28;20309;-44
2021/09/04 03:34:43;;;;;;;;;;;;;;;;;;2089806;28;19920;-44
2021/09/04 03:35:44;;;;;;;;;;;;;;;;;;2087405;28;20378;-45
2021/09/04 03:36:46;;;;;;;;;;;;;;;;;;2082016;28;19921;-45
2021/09/04 03:37:47;;;;;;;;;;;;;;;;;;2082581;28;20437;-45
2021/09/04 03:38:48;;;;;;;;;;;;;;;;;;2088277;28;19921;-45
2021/09/04 03:39:48;;;;;;;;;;;;;;;;;;2090141;28;20332;-44
2021/09/04 03:40:49;;;;;;;;;;;;;;;;;;2089506;28;20297;-45
2021/09/04 03:41:50;;;;;;;;;;;;;;;;;;2086142;28;19925;-44
2021/09/04 03:42:51;;;;;;;;;;;;;;;;;;2081749;28;19928;-44
2021/09/04 03:43:52;;;;;;;;;;;;;;;;;;2083571;28;19921;-44
2021/09/04 03:44:53;;;;;;;;;;;;;;;;;;2085673;28;20039;-45
2021/09/04 03:45:53;;;;;;;;;;;;;;;;;;2081743;28;20317;-45
2021/09/04 03:46:54;;;;;;;;;;;;;;;;;;2083870;28;19974;-44
2021/09/04 03:47:55;;;;;;;;;;;;;;;;;;2085354;28;19931;-45
2021/09/04 03:48:59;;;;;;;;;;;;;;;;;;2081851;28;19971;-45
2021/09/04 03:50:00;;;;;;;;;;;;;;;;;;2085066;28;20015;-44
2021/09/04 03:51:01;;;;;;;;;;;;;;;;;;2081833;28;19968;-45
2021/09/04 03:52:02;;;;;;;;;;;;;;;;;;2081896;28;19971;-45
2021/09/04 03:53:03;;;;;;;;;;;;;;;;;;2085530;28;20293;-45
2021/09/04 03:54:03;;;;;;;;;;;;;;;;;;2088961;28;19927;-45
2021/09/04 03:55:04;;;;;;;;;;;;;;;;;;2089978;28;19921;-45
2021/09/04 03:56:06;;;;;;;;;;;;;;;;;;2088428;28;19928;-45
2021/09/04 03:57:07;;;;;;;;;;;;;;;;;;2089665;28;19928;-45
2021/09/04 03:58:07;;;;;;;;;;;;;;;;;;2090072;28;20418;-44
2021/09/04 03:59:08;;;;;;;;;;;;;;;;;;2087896;28;20011;-45
2021/09/04 04:00:09;;;;;;;;;;;;;;;;;;2089988;28;19920;-44
2021/09/04 04:01:10;;;;;;;;;;;;;;;;;;2090072;28;20289;-45
2021/09/04 04:02:11;;;;;;;;;;;;;;;;;;2088231;28;19921;-45
2021/09/04 04:03:12;;;;;;;;;;;;;;;;;;2081835;28;19921;-44
2021/09/04 04:04:13;;;;;;;;;;;;;;;;;;2081877;28;19931;-45
2021/09/04 04:05:14;;;;;;;;;;;;;;;;;;2086409;28;19967;-45
2021/09/04 04:06:15;;;;;;;;;;;;;;;;;;2081812;28;19921;-44
2021/09/04 04:07:16;;;;;;;;;;;;;;;;;;2081687;28;19921;-45
2021/09/04 04:08:17;;;;;;;;;;;;;;;;;;2086455;28;20281;-45
2021/09/04 04:09:17;;;;;;;;;;;;;;;;;;2090063;28;20398;-45
2021/09/04 04:10:18;;;;;;;;;;;;;;;;;;2089435;28;19921;-44
2021/09/04 04:11:19;;;;;;;;;;;;;;;;;;2087990;28;19929;-45
2021/09/04 04:12:20;;;;;;;;;;;;;;;;;;2089880;28;19925;-45
2021/09/04 04:13:20;;;;;;;;;;;;;;;;;;2089463;28;19924;-45
2021/09/04 04:14:21;;;;;;;;;;;;;;;;;;2088142;28;20275;-45
2021/09/04 04:15:22;;;;;;;;;;;;;;;;;;2089996;28;19920;-45
2021/09/04 04:16:23;;;;;;;;;;;;;;;;;;2089422;28;20019;-44
2021/09/04 04:17:24;;;;;;;;;;;;;;;;;;2088272;28;19933;-45
2021/09/04 04:18:25;;;;;;;;;;;;;;;;;;2089966;28;19920;-45
2021/09/04 04:19:26;;;;;;;;;;;;;;;;;;2089456;28;19921;-44
2021/09/04 04:20:27;;;;;;;;;;;;;;;;;;2085543;28;19949;-44
2021/09/04 04:21:27;;;;;;;;;;;;;;;;;;2081852;28;20286;-45
2021/09/04 04:22:28;;;;;;;;;;;;;;;;;;2087779;28;19964;-44
2021/09/04 04:23:29;;;;;;;;;;;;;;;;;;2085440;28;20365;-44
2021/09/04 04:24:30;;;;;;;;;;;;;;;;;;2081755;28;20294;-45
2021/09/04 04:25:31;;;;;;;;;;;;;;;;;;2084164;28;19950;-45
2021/09/04 04:26:31;;;;;;;;;;;;;;;;;;2088358;28;19921;-45
2021/09/04 04:27:32;;;;;;;;;;;;;;;;;;2089777;28;19931;-45
2021/09/04 04:28:33;;;;;;;;;;;;;;;;;;2088940;28;20034;-45
2021/09/04 04:29:34;;;;;;;;;;;;;;;;;;2088341;28;19921;-44
2021/09/04 04:30:35;;;;;;;;;;;;;;;;;;2089902;28;19920;-45
2021/09/04 04:31:38;;;;;;;;;;;;;;;;;;2088890;28;19927;-45
2021/09/04 04:32:39;;;;;;;;;;;;;;;;;;2088636;28;19921;-45
2021/09/04 04:33:42;;;;;;;;;;;;;;;;;;2089850;28;19998;-45
2021/09/04 04:34:43;;;;;;;;;;;;;;;;;;2087715;28;19921;-44
2021/09/04 04:35:44;;;;;;;;;;;;;;;;;;2088348;28;19920;-45
2021/09/04 04:36:44;;;;;;;;;;;;;;;;;;2089161;28;19967;-45
2021/09/04 04:37:45;;;;;;;;;;;;;;;;;;2088787;28;20552;-45
2021/09/04 04:38:46;;;;;;;;;;;;;;;;;;2081837;28;20385;-45
2021/09/04 04:39:47;;;;;;;;;;;;;;;;;;2081579;28;19921;-45
2021/09/04 04:40:48;;;;;;;;;;;;;;;;;;2086044;28;19920;-44
2021/09/04 04:41:48;;;;;;;;;;;;;;;;;;2089907;28;19942;-45
2021/09/04 04:42:49;;;;;;;;;;;;;;;;;;2089738;28;20365;-45
2021/09/04 04:43:50;;;;;;;;;;;;;;;;;;2087513;28;19978;-45
2021/09/04 04:44:51;;;;;;;;;;;;;;;;;;2089637;28;19928;-45
2021/09/04 04:45:51;;;;;;;;;;;;;;;;;;2089665;28;19921;-45
2021/09/04 04:46:52;;;;;;;;;;;;;;;;;;2087300;28;19925;-45
2021/09/04 04:47:53;;;;;;;;;;;;;;;;;;2089830;28;19924;-45
2021/09/04 04:48:54;;;;;;;;;;;;;;;;;;2089313;28;19921;-45
2021/09/04 04:49:55;;;;;;;;;;;;;;;;;;2086949;28;19975;-45
2021/09/04 04:50:56;;;;;;;;;;;;;;;;;;2080078;28;20359;-44
2021/09/04 04:51:56;;;;;;;;;;;;;;;;;;2082049;28;19963;-44
2021/09/04 04:52:57;;;;;;;;;;;;;;;;;;2087724;28;19924;-45
2021/09/04 04:53:58;;;;;;;;;;;;;;;;;;2089616;28;19920;-45
2021/09/04 04:54:59;;;;;;;;;;;;;;;;;;2089165;28;19974;-45
2021/09/04 04:56:02;;;;;;;;;;;;;;;;;;2085888;28;19932;-45
2021/09/04 04:57:04;;;;;;;;;;;;;;;;;;2081402;28;20382;-45
2021/09/04 04:58:05;;;;;;;;;;;;;;;;;;2083366;28;19960;-45
2021/09/04 04:59:06;;;;;;;;;;;;;;;;;;2085135;28;20290;-45
2021/09/04 05:00:07;;;;;;;;;;;;;;;;;;2081450;28;20294;-45
2021/09/04 05:01:07;;;;;;;;;;;;;;;;;;2083815;28;19920;-45
2021/09/04 05:02:09;;;;;;;;;;;;;;;;;;2088241;28;19928;-45
2021/09/04 05:03:10;;;;;;;;;;;;;;;;;;2089617;28;20498;-45
2021/09/04 05:04:11;;;;;;;;;;;;;;;;;;2088790;28;19974;-45
2021/09/04 05:05:11;;;;;;;;;;;;;;;;;;2083719;28;20286;-45
2021/09/04 05:06:12;;;;;;;;;;;;;;;;;;2081530;28;19921;-46
2021/09/04 05:07:13;;;;;;;;;;;;;;;;;;2085109;28;20362;-45
2021/09/04 05:08:14;;;;;;;;;;;;;;;;;;2088326;28;20385;-45
2021/09/04 05:09:15;;;;;;;;;;;;;;;;;;2089692;28;19921;-45
2021/09/04 05:10:16;;;;;;;;;;;;;;;;;;2088390;28;19936;-45
2021/09/04 05:11:16;;;;;;;;;;;;;;;;;;2082758;28;20329;-45
2021/09/04 05:12:17;;;;;;;;;;;;;;;;;;2081337;28;19921;-46
2021/09/04 05:13:18;;;;;;;;;;;;;;;;;;2085086;28;19920;-45
2021/09/04 05:14:19;;;;;;;;;;;;;;;;;;2089463;28;19966;-45
2021/09/04 05:15:20;;;;;;;;;;;;;;;;;;2089660;28;19999;-46
2021/09/04 05:16:20;;;;;;;;;;;;;;;;;;2086765;28;19943;-46
2021/09/04 05:17:21;;;;;;;;;;;;;;;;;;2081443;28;20208;-45
2021/09/04 05:18:22;;;;;;;;;;;;;;;;;;2084884;28;19921;-45
2021/09/04 05:19:23;;;;;;;;;;;;;;;;;;2086246;28;19921;-45
2021/09/04 05:20:24;;;;;;;;;;;;;;;;;;2081274;28;20341;-45
2021/09/04 05:21:25;;;;;;;;;;;;;;;;;;2082362;28;19921;-46
2021/09/04 05:22:25;;;;;;;;;;;;;;;;;;2088069;28;19921;-46
2021/09/04 05:23:26;;;;;;;;;;;;;;;;;;2089536;28;19921;-45
2021/09/04 05:24:27;;;;;;;;;;;;;;;;;;2088775;28;19921;-46
2021/09/04 05:25:28;;;;;;;;;;;;;;;;;;2087995;28;20397;-46
2021/09/04 05:26:29;;;;;;;;;;;;;;;;;;2089572;28;19925;-45
2021/09/04 05:27:29;;;;;;;;;;;;;;;;;;2088260;28;19924;-45
2021/09/04 05:28:30;;;;;;;;;;;;;;;;;;2088675;28;20007;-45
2021/09/04 05:29:31;;;;;;;;;;;;;;;;;;2089654;28;20287;-45
2021/09/04 05:30:32;;;;;;;;;;;;;;;;;;2087500;28;19924;-46
2021/09/04 05:31:34;;;;;;;;;;;;;;;;;;2088286;28;19971;-45
2021/09/04 05:32:34;;;;;;;;;;;;;;;;;;2089650;28;19927;-59
2021/09/04 05:33:35;;;;;;;;;;;;;;;;;;2087489;28;19932;-58
2021/09/04 05:34:36;;;;;;;;;;;;;;;;;;2089378;28;19943;-58
2021/09/04 05:35:37;;;;;;;;;;;;;;;;;;2089530;28;19920;-58
2021/09/04 05:36:38;;;;;;;;;;;;;;;;;;2087084;28;19927;-58
2021/09/04 05:37:38;;;;;;;;;;;;;;;;;;2089592;28;19925;-58
2021/09/04 05:38:39;;;;;;;;;;;;;;;;;;2089712;28;20280;-58
2021/09/04 05:39:40;;;;;;;;;;;;;;;;;;2087191;28;20282;-58
2021/09/04 05:40:41;;;;;;;;;;;;;;;;;;2089294;28;19920;-58
2021/09/04 05:41:42;;;;;;;;;;;;;;;;;;2089445;28;19927;-58
2021/09/04 05:42:43;;;;;;;;;;;;;;;;;;2086451;28;19921;-58
2021/09/04 05:43:43;;;;;;;;;;;;;;;;;;2089425;28;20405;-58
2021/09/04 05:44:44;;;;;;;;;;;;;;;;;;2088977;28;19963;-59
2021/09/04 05:45:45;;;;;;;;;;;;;;;;;;2087394;28;19921;-58
2021/09/04 05:46:46;;;;;;;;;;;;;;;;;;2089522;28;19974;-58
2021/09/04 05:47:47;;;;;;;;;;;;;;;;;;2089756;28;19920;-58
2021/09/04 05:48:48;;;;;;;;;;;;;;;;;;2089023;28;19920;-58
2021/09/04 05:49:48;;;;;;;;;;;;;;;;;;2091087;28;20420;-58
2021/09/04 05:50:49;;;;;;;;;;;;;;;;;;2086707;28;19921;-58
2021/09/04 05:51:50;;;;;;;;;;;;;;;;;;2089155;28;19982;-58
2021/09/04 05:52:51;;;;;;;;;;;;;;;;;;2090801;28;19925;-58
2021/09/04 05:53:51;;;;;;;;;;;;;;;;;;2090355;28;19925;-58
2021/09/04 05:54:52;;;;;;;;;;;;;;;;;;2089122;28;20072;-58
2021/09/04 05:55:53;;;;;;;;;;;;;;;;;;2090862;28;20347;-57
2021/09/04 05:56:54;;;;;;;;;;;;;;;;;;2090004;28;19928;-58
2021/09/04 05:57:55;;;;;;;;;;;;;;;;;;2090279;28;19925;-58
2021/09/04 05:58:56;;;;;;;;;;;;;;;;;;2090793;28;19977;-58
2021/09/04 05:59:57;;;;;;;;;;;;;;;;;;2090034;28;20436;-58
2021/09/04 06:00:57;;;;;;;;;;;;;;;;;;2090388;28;20035;-58
2021/09/04 06:01:58;;;;;;;;;;;;;;;;;;2090726;28;20390;-58
2021/09/04 06:02:59;;;;;;;;;;;;;;;;;;2089821;28;19929;-58
2021/09/04 06:04:01;;;;;;;;;;;;;;;;;;2084241;28;19925;-58
2021/09/04 06:05:01;;;;;;;;;;;;;;;;;;2082487;28;19921;-57
2021/09/04 06:06:03;;;;;;;;;;;;;;;;;;2086191;28;19928;-57
2021/09/04 06:07:04;;;;;;;;;;;;;;;;;;2084220;28;20424;-58
2021/09/04 06:08:05;;;;;;;;;;;;;;;;;;2082525;28;19966;-58
2021/09/04 06:09:05;;;;;;;;;;;;;;;;;;2086093;28;19927;-58
2021/09/04 06:10:06;;;;;;;;;;;;;;;;;;2090552;28;19975;-58
2021/09/04 06:11:07;;;;;;;;;;;;;;;;;;2090769;28;20336;-57
2021/09/04 06:12:08;;;;;;;;;;;;;;;;;;2088525;28;20443;-58
2021/09/04 06:13:08;;;;;;;;;;;;;;;;;;2090528;28;19921;-58
2021/09/04 06:14:10;;;;;;;;;;;;;;;;;;2090551;28;19925;-58
2021/09/04 06:15:10;;;;;;;;;;;;;;;;;;2087599;28;20023;-58
2021/09/04 06:16:11;;;;;;;;;;;;;;;;;;2090683;28;20369;-58
2021/09/04 06:17:12;;;;;;;;;;;;;;;;;;2090718;28;20000;-59
2021/09/04 06:18:13;;;;;;;;;;;;;;;;;;2088450;28;19956;-58
2021/09/04 06:19:14;;;;;;;;;;;;;;;;;;2090725;28;20286;-58
2021/09/04 06:20:15;;;;;;;;;;;;;;;;;;2090582;28;20304;-58
2021/09/04 06:21:15;;;;;;;;;;;;;;;;;;2088339;28;20287;-58
2021/09/04 06:22:16;;;;;;;;;;;;;;;;;;2090681;28;20381;-58
2021/09/04 06:23:17;;;;;;;;;;;;;;;;;;2090200;28;19921;-58
2021/09/04 06:24:18;;;;;;;;;;;;;;;;;;2088695;28;19929;-59
2021/09/04 06:25:19;;;;;;;;;;;;;;;;;;2090607;28;19979;-58
2021/09/04 06:26:20;;;;;;;;;;;;;;;;;;2090126;28;20370;-58
2021/09/04 06:27:20;;;;;;;;;;;;;;;;;;2088602;28;19959;-59
2021/09/04 06:28:21;;;;;;;;;;;;;;;;;;2090638;28;19921;-58
2021/09/04 06:29:24;;;;;;;;;;;;;;;;;;2090151;28;20266;-58
2021/09/04 06:30:25;;;;;;;;;;;;;;;;;;2086633;28;19925;-58
2021/09/04 06:31:26;;;;;;;;;;;;;;;;;;2082429;28;19921;-58
2021/09/04 06:32:27;;;;;;;;;;;;;;;;;;2084515;28;19967;-46
2021/09/04 06:33:27;;;;;;;;;;;;;;;;;;2087951;28;19927;-45
2021/09/04 06:34:28;;;;;;;;;;;;;;;;;;2090570;28;19974;-46
2021/09/04 06:35:29;;;;;;;;;;;;;;;;;;2089606;28;19924;-46
2021/09/04 06:36:30;;;;;;;;;;;;;;;;;;2089154;28;20440;-45
2021/09/04 06:37:31;;;;;;;;;;;;;;;;;;2090526;28;19921;-45
2021/09/04 06:38:32;;;;;;;;;;;;;;;;;;2089622;28;19947;-45
2021/09/04 06:39:32;;;;;;;;;;;;;;;;;;2089182;28;19929;-46
2021/09/04 06:40:33;;;;;;;;;;;;;;;;;;2090387;28;19925;-45
2021/09/04 06:41:34;;;;;;;;;;;;;;;;;;2089770;28;19983;-58
2021/09/04 06:42:35;;;;;;;;;;;;;;;;;;2088977;28;19971;-58
2021/09/04 06:43:36;;;;;;;;;;;;;;;;;;2090712;28;19964;-58
2021/09/04 06:44:37;;;;;;;;;;;;;;;;;;2088428;28;19924;-58
2021/09/04 06:45:37;;;;;;;;;;;;;;;;;;2090195;28;19921;-58
2021/09/04 06:46:38;;;;;;;;;;;;;;;;;;2090476;28;19928;-58
2021/09/04 06:47:39;;;;;;;;;;;;;;;;;;2088681;28;19921;-58
2021/09/04 06:48:40;;;;;;;;;;;;;;;;;;2089940;28;19958;-58
2021/09/04 06:49:41;;;;;;;;;;;;;;;;;;2090346;28;20381;-58
2021/09/04 06:50:42;;;;;;;;;;;;;;;;;;2087822;28;20388;-59
2021/09/04 06:51:43;;;;;;;;;;;;;;;;;;2090452;28;19927;-58
2021/09/04 06:52:43;;;;;;;;;;;;;;;;;;2089963;28;20427;-58
2021/09/04 06:53:44;;;;;;;;;;;;;;;;;;2088431;28;20000;-59
2021/09/04 06:54:45;;;;;;;;;;;;;;;;;;2090412;28;19921;-59
2021/09/04 06:55:46;;;;;;;;;;;;;;;;;;2089965;28;20007;-58